Terminal Aerodrome Forecast
Issued by NWS

Home | Current Version | Previous Version | Text Only | Print | Product List | Glossary On
Versions: 1 2 3 4 5 6 7 8 9 10 11 12 13 14 15
129
FTUS43 KILX 241729
TAFCMI
TAF
KCMI 241729Z 2418/2518 20020G30KT P6SM SCT035 BKN150
     FM250200 18010KT P6SM OVC050
     FM250500 17009KT P6SM VCTS OVC050CB
     FM250800 15010G18KT 4SM SHRA BR VCTS OVC035CB
     FM251200 15012G22KT 3SM -SHRA BR OVC015=

USA.gov is the U.S. government's official web portal to all federal, state and local government web resources and services.